Time;durP1;ratioP1;P1;durP2;ratioP2;P2;SDS_P1;SDS_P2;PMS_P1;PMS_P2;Temp;Humidity;BMP_temperature;BMP_pressure;BME280_temperature;BME280_humidity;BME280_pressure;Samples;Min_cycle;Max_cycle;Signal;HPM_P1;HPM_P2
2022/07/18 00:02:11;;;;;;;6.00;3.77;;;21.70;49.00;;;;;;5015956;28;20454;-71
2022/07/18 00:04:39;;;;;;;6.83;3.40;;;21.70;49.10;;;;;;5015332;28;20436;-72
2022/07/18 00:07:06;;;;;;;9.37;3.00;;;21.60;49.20;;;;;;5016150;28;20478;-71
2022/07/18 00:09:33;;;;;;;12.00;3.90;;;21.60;49.30;;;;;;5016100;28;20451;-71
2022/07/18 00:11:59;;;;;;;10.57;2.80;;;21.50;49.40;;;;;;5016139;28;20455;-71
2022/07/18 00:14:26;;;;;;;9.83;4.37;;;21.40;49.50;;;;;;5016015;28;20483;-71
2022/07/18 00:16:53;;;;;;;9.13;3.90;;;21.40;49.80;;;;;;5015990;28;20447;-71
2022/07/18 00:19:19;;;;;;;8.40;3.00;;;21.30;49.80;;;;;;5013490;28;20447;-71
2022/07/18 00:21:48;;;;;;;9.80;4.43;;;21.30;49.70;;;;;;4996446;28;20444;-72
2022/07/18 00:24:14;;;;;;;7.00;4.50;;;21.30;49.70;;;;;;4996321;28;20444;-72
2022/07/18 00:26:41;;;;;;;11.20;3.73;;;21.20;49.70;;;;;;4996219;28;20450;-70
2022/07/18 00:29:08;;;;;;;9.63;4.00;;;21.20;49.70;;;;;;4996330;28;20459;-71
2022/07/18 00:31:36;;;;;;;7.13;3.33;;;21.20;49.70;;;;;;4996234;28;20467;-71
2022/07/18 00:34:03;;;;;;;8.13;3.63;;;21.20;49.90;;;;;;4996303;28;20500;-71
2022/07/18 00:36:30;;;;;;;7.20;3.40;;;21.10;50.00;;;;;;4996280;28;20449;-72
2022/07/18 00:38:59;;;;;;;8.60;3.20;;;21.10;50.40;;;;;;4996826;28;20468;-71
2022/07/18 00:41:26;;;;;;;9.37;3.10;;;21.00;50.70;;;;;;4995758;28;20464;-72
2022/07/18 00:43:53;;;;;;;10.43;4.00;;;20.90;50.70;;;;;;4995944;28;20814;-71
2022/07/18 00:46:22;;;;;;;5.77;3.30;;;20.90;50.70;;;;;;4995971;28;20448;-69
2022/07/18 00:48:49;;;;;;;6.77;3.40;;;20.90;50.80;;;;;;4995789;28;20519;-69
2022/07/18 00:51:17;;;;;;;11.33;3.17;;;20.90;50.80;;;;;;4995851;28;20485;-69
2022/07/18 00:53:44;;;;;;;6.40;3.17;;;20.90;50.80;;;;;;4995743;28;20484;-69
2022/07/18 00:56:13;;;;;;;6.50;3.23;;;20.90;51.00;;;;;;4995612;28;20461;-69
2022/07/18 00:58:41;;;;;;;7.97;3.30;;;20.90;51.10;;;;;;4995757;28;20893;-69
2022/07/18 01:03:52;;;;;;;7.13;3.23;;;20.90;51.50;;;;;;4995670;28;20396;-69
2022/07/18 01:06:19;;;;;;;6.23;2.90;;;20.80;51.40;;;;;;4995249;28;20829;-69
2022/07/18 01:08:45;;;;;;;6.97;3.07;;;20.70;51.20;;;;;;4995395;28;20475;-69
2022/07/18 01:11:14;;;;;;;4.43;2.63;;;20.70;51.30;;;;;;4995464;28;20455;-69
2022/07/18 01:13:41;;;;;;;5.17;3.00;;;20.60;51.40;;;;;;4995185;28;22423;-69
2022/07/18 01:16:08;;;;;;;4.50;2.83;;;20.50;51.30;;;;;;4994998;28;20456;-69
2022/07/18 01:18:35;;;;;;;8.83;3.23;;;20.50;51.20;;;;;;4995272;28;20469;-69
2022/07/18 01:21:03;;;;;;;5.37;2.80;;;20.40;51.20;;;;;;4994978;28;20443;-68
2022/07/18 01:23:30;;;;;;;4.63;3.27;;;20.40;51.30;;;;;;4994958;28;20939;-69
2022/07/18 01:25:57;;;;;;;7.00;2.60;;;20.30;51.40;;;;;;4995120;28;20444;-69
2022/07/18 01:28:23;;;;;;;7.93;3.00;;;20.30;51.50;;;;;;4995035;28;20494;-69
2022/07/18 01:30:50;;;;;;;9.73;3.77;;;20.20;51.70;;;;;;4994911;28;20452;-69
2022/07/18 01:33:17;;;;;;;6.20;3.23;;;20.20;52.10;;;;;;4994725;28;20471;-69
2022/07/18 01:35:44;;;;;;;6.13;3.80;;;20.10;52.60;;;;;;4994908;28;20484;-69
2022/07/18 01:38:12;;;;;;;8.70;3.20;;;20.10;52.90;;;;;;4994814;28;20511;-69
2022/07/18 01:40:39;;;;;;;3.50;3.03;;;20.00;52.80;;;;;;4994995;28;20475;-69
2022/07/18 01:43:06;;;;;;;5.37;2.63;;;20.00;52.70;;;;;;4994889;28;20787;-69
2022/07/18 01:45:33;;;;;;;4.67;3.00;;;20.00;52.40;;;;;;4994878;28;20510;-69
2022/07/18 01:48:00;;;;;;;3.33;2.63;;;20.00;52.40;;;;;;4994644;28;20476;-69
2022/07/18 01:50:27;;;;;;;4.50;2.67;;;19.90;52.30;;;;;;4994742;28;20450;-69
2022/07/18 01:52:54;;;;;;;5.47;3.00;;;19.90;52.30;;;;;;4994477;28;20976;-69
2022/07/18 01:55:22;;;;;;;5.93;3.10;;;19.90;53.10;;;;;;4994624;28;20492;-69
2022/07/18 01:57:49;;;;;;;4.23;2.70;;;19.90;52.50;;;;;;4994235;28;20468;-69
2022/07/18 02:00:15;;;;;;;5.93;3.00;;;19.90;52.50;;;;;;4994307;28;20448;-69
2022/07/18 02:02:42;;;;;;;5.40;2.90;;;19.90;52.60;;;;;;4994456;28;20452;-69
2022/07/18 02:05:09;;;;;;;3.80;3.20;;;19.90;52.80;;;;;;4994508;28;20452;-69
2022/07/18 02:07:38;;;;;;;5.03;3.50;;;19.90;52.90;;;;;;4994140;28;20839;-69
2022/07/18 02:10:06;;;;;;;3.00;2.70;;;19.80;53.00;;;;;;4994133;28;20946;-69
2022/07/18 02:12:35;;;;;;;5.20;3.40;;;19.80;53.10;;;;;;4994473;28;20488;-69
2022/07/18 02:15:02;;;;;;;4.50;3.10;;;19.80;53.10;;;;;;4994393;28;20818;-69
2022/07/18 02:17:28;;;;;;;4.77;3.10;;;19.80;53.30;;;;;;4994262;28;20479;-69
2022/07/18 02:19:55;;;;;;;3.03;2.63;;;19.80;53.40;;;;;;4994247;28;20560;-69
2022/07/18 02:22:23;;;;;;;5.53;3.20;;;19.80;53.50;;;;;;4994334;28;20444;-69
2022/07/18 02:24:51;;;;;;;3.93;2.60;;;19.80;53.70;;;;;;4994139;28;20853;-69
2022/07/18 02:27:18;;;;;;;5.17;2.90;;;19.70;53.70;;;;;;4993435;28;20476;-69
2022/07/18 02:29:46;;;;;;;4.20;3.17;;;19.70;54.00;;;;;;4993948;28;20823;-69
2022/07/18 02:32:13;;;;;;;7.43;3.50;;;19.60;54.00;;;;;;4993948;28;20843;-69
2022/07/18 02:34:40;;;;;;;4.73;2.90;;;19.60;54.20;;;;;;4994468;28;20459;-69
2022/07/18 02:37:06;;;;;;;7.10;3.20;;;19.50;54.40;;;;;;4994107;28;20468;-69
2022/07/18 02:39:33;;;;;;;5.07;2.53;;;19.50;54.50;;;;;;4994102;28;20460;-69
2022/07/18 02:42:00;;;;;;;6.50;3.10;;;19.50;54.60;;;;;;4994087;28;20444;-69
2022/07/18 02:44:27;;;;;;;4.40;3.10;;;19.40;54.70;;;;;;4993996;28;20499;-69
2022/07/18 02:46:55;;;;;;;4.40;2.70;;;19.40;54.80;;;;;;4994033;28;20494;-69
2022/07/18 02:49:28;;;;;;;5.17;2.87;;;19.40;55.00;;;;;;4994089;28;20462;-69
2022/07/18 02:51:56;;;;;;;5.50;3.07;;;19.40;55.00;;;;;;4994092;28;20443;-69
2022/07/18 02:54:24;;;;;;;3.33;2.73;;;19.30;55.10;;;;;;4994019;28;20440;-69
2022/07/18 02:56:52;;;;;;;7.10;2.93;;;19.30;55.20;;;;;;4993537;28;20964;-69
2022/07/18 02:59:18;;;;;;;5.30;3.13;;;19.20;55.40;;;;;;4993951;28;20456;-69
2022/07/18 03:01:46;;;;;;;2.83;2.50;;;19.10;55.40;;;;;;4993544;28;20455;-69
2022/07/18 03:04:14;;;;;;;4.40;2.67;;;19.10;55.40;;;;;;4993867;28;20448;-69
2022/07/18 03:06:41;;;;;;;4.33;2.90;;;19.00;55.30;;;;;;4993718;28;20452;-69
2022/07/18 03:09:08;;;;;;;4.47;3.07;;;19.00;55.10;;;;;;4993818;28;20823;-69
2022/07/18 03:11:35;;;;;;;3.70;2.80;;;19.00;55.10;;;;;;4993899;28;20455;-69
2022/07/18 03:14:01;;;;;;;12.10;3.37;;;19.00;55.20;;;;;;4993826;28;20459;-69
2022/07/18 03:16:28;;;;;;;4.70;2.93;;;19.00;55.30;;;;;;4993532;28;20468;-69
2022/07/18 03:18:55;;;;;;;2.90;2.43;;;19.00;55.40;;;;;;4993316;28;20871;-69
2022/07/18 03:21:23;;;;;;;6.23;2.97;;;19.00;55.50;;;;;;4993369;28;20834;-69
2022/07/18 03:23:50;;;;;;;3.90;3.57;;;19.00;55.70;;;;;;4993805;28;20487;-69
2022/07/18 03:26:17;;;;;;;3.60;2.40;;;19.00;55.80;;;;;;4993818;28;20492;-69
2022/07/18 03:28:43;;;;;;;5.37;2.53;;;19.00;56.00;;;;;;4993596;28;20476;-69
2022/07/18 03:31:11;;;;;;;4.87;3.10;;;19.00;56.00;;;;;;4993612;28;20462;-69
2022/07/18 03:33:38;;;;;;;2.80;2.50;;;19.00;56.20;;;;;;4993874;28;20437;-69
2022/07/18 03:36:06;;;;;;;5.00;2.10;;;18.90;56.20;;;;;;4993739;28;20448;-69
2022/07/18 03:38:35;;;;;;;7.30;3.00;;;18.80;56.20;;;;;;4996141;28;20472;-69
2022/07/18 03:41:02;;;;;;;3.33;2.70;;;18.90;56.40;;;;;;4996902;28;20938;-69
2022/07/18 03:43:29;;;;;;;6.60;2.87;;;18.80;56.50;;;;;;4996863;28;20946;-69
2022/07/18 03:45:56;;;;;;;4.03;2.60;;;18.80;56.50;;;;;;4996791;28;20486;-69
2022/07/18 03:48:23;;;;;;;3.23;2.80;;;18.80;56.90;;;;;;4996994;28;20476;-69
2022/07/18 03:50:49;;;;;;;5.90;3.03;;;18.70;57.00;;;;;;4997308;28;20452;-69
2022/07/18 03:53:16;;;;;;;5.97;2.80;;;18.70;57.10;;;;;;4997127;28;20451;-69
2022/07/18 03:55:44;;;;;;;5.53;2.80;;;18.70;57.20;;;;;;4996838;28;20472;-69
2022/07/18 03:58:11;;;;;;;6.30;3.30;;;18.70;57.20;;;;;;4996731;28;20468;-69
2022/07/18 04:00:38;;;;;;;7.83;2.77;;;18.70;57.30;;;;;;4996815;28;20452;-69
2022/07/18 04:03:05;;;;;;;4.87;3.50;;;18.60;57.10;;;;;;4996749;28;20535;-69
2022/07/18 04:05:32;;;;;;;5.93;2.60;;;18.60;57.10;;;;;;4996626;28;20479;-69
2022/07/18 04:07:59;;;;;;;4.40;2.60;;;18.60;57.30;;;;;;4996633;28;20468;-69
2022/07/18 04:10:26;;;;;;;5.93;2.50;;;18.60;57.40;;;;;;4996557;28;20452;-69
2022/07/18 04:12:56;;;;;;;7.60;2.70;;;18.60;57.60;;;;;;4996578;28;20444;-69
2022/07/18 04:15:25;;;;;;;3.27;2.97;;;18.60;57.90;;;;;;4996484;28;20451;-69
2022/07/18 04:17:52;;;;;;;3.90;2.77;;;18.60;58.10;;;;;;4996659;28;20475;-69
2022/07/18 04:20:21;;;;;;;4.57;2.83;;;18.60;58.20;;;;;;4996460;28;20456;-69
2022/07/18 04:22:50;;;;;;;4.10;2.37;;;18.60;58.20;;;;;;4996391;28;20452;-69
2022/07/18 04:25:17;;;;;;;3.60;2.97;;;18.60;58.40;;;;;;4996268;28;20488;-69
2022/07/18 04:27:44;;;;;;;5.20;2.83;;;18.70;59.10;;;;;;4996126;28;20475;-69
2022/07/18 04:30:13;;;;;;;3.97;2.60;;;18.70;58.60;;;;;;4996004;28;20861;-69
2022/07/18 04:32:40;;;;;;;4.50;2.50;;;18.70;58.80;;;;;;4995913;28;20467;-69
2022/07/18 04:35:08;;;;;;;4.67;2.57;;;18.70;58.80;;;;;;4996180;28;20441;-69
2022/07/18 04:37:34;;;;;;;7.10;3.27;;;18.80;59.50;;;;;;4996084;28;20468;-69
2022/07/18 04:40:02;;;;;;;4.07;2.63;;;18.80;59.00;;;;;;4996002;28;20445;-69
2022/07/18 04:42:30;;;;;;;5.73;3.20;;;18.80;59.10;;;;;;4995813;28;20455;-69
2022/07/18 04:44:58;;;;;;;6.87;3.30;;;18.90;59.40;;;;;;4995930;28;20484;-69
2022/07/18 04:47:26;;;;;;;5.90;2.70;;;18.90;59.50;;;;;;4995860;28;20475;-69
2022/07/18 04:49:53;;;;;;;4.00;3.33;;;18.90;59.60;;;;;;4995162;28;20448;-69
2022/07/18 04:52:20;;;;;;;6.20;3.20;;;19.00;59.90;;;;;;4995903;28;20448;-69
2022/07/18 04:54:46;;;;;;;4.10;3.30;;;19.00;60.00;;;;;;4995448;28;20460;-69
2022/07/18 04:57:14;;;;;;;4.63;3.27;;;19.00;60.20;;;;;;4995699;28;20464;-69
2022/07/18 04:59:41;;;;;;;5.13;2.87;;;19.10;60.40;;;;;;4995704;28;20514;-69
2022/07/18 05:02:08;;;;;;;5.70;3.90;;;19.10;60.80;;;;;;4995634;28;20450;-69
2022/07/18 05:04:36;;;;;;;7.37;3.30;;;19.20;61.50;;;;;;4995283;28;20941;-69
2022/07/18 05:07:03;;;;;;;5.53;2.90;;;19.20;61.60;;;;;;4995477;28;20473;-69
2022/07/18 05:09:30;;;;;;;5.23;2.80;;;19.30;61.20;;;;;;4995268;28;20946;-69
2022/07/18 05:11:57;;;;;;;6.27;3.50;;;19.40;60.30;;;;;;4995545;28;20820;-69
2022/07/18 05:14:24;;;;;;;5.10;3.73;;;19.50;60.50;;;;;;4995454;28;20452;-69
2022/07/18 05:16:51;;;;;;;3.00;2.27;;;19.60;60.60;;;;;;4995046;28;20454;-69
2022/07/18 05:19:17;;;;;;;7.87;3.30;;;19.70;59.80;;;;;;4995013;28;20938;-69
2022/07/18 05:21:46;;;;;;;5.43;3.50;;;19.80;59.90;;;;;;4995291;28;20463;-69
2022/07/18 05:24:13;;;;;;;4.80;3.20;;;19.90;61.20;;;;;;4995290;28;20844;-69
2022/07/18 05:26:40;;;;;;;3.37;2.97;;;19.90;59.50;;;;;;4995023;28;20480;-69
2022/07/18 05:29:06;;;;;;;6.70;3.30;;;20.00;59.50;;;;;;4995105;28;20454;-69
2022/07/18 05:31:33;;;;;;;4.93;2.90;;;20.10;59.40;;;;;;4994949;28;20460;-69
2022/07/18 05:34:00;;;;;;;4.73;3.30;;;20.20;59.30;;;;;;4995041;28;20460;-69
2022/07/18 05:36:27;;;;;;;5.03;2.87;;;20.30;58.60;;;;;;4995022;28;20451;-69
2022/07/18 05:38:55;;;;;;;8.97;3.63;;;20.30;58.50;;;;;;4994584;28;20476;-69
2022/07/18 05:41:22;;;;;;;5.20;3.03;;;20.40;58.30;;;;;;4994878;28;20448;-69
2022/07/18 05:43:48;;;;;;;10.40;4.63;;;20.50;58.30;;;;;;4994891;28;20459;-69
2022/07/18 05:46:15;;;;;;;5.53;3.40;;;20.60;58.30;;;;;;4994815;28;20491;-69
2022/07/18 05:48:42;;;;;;;10.13;3.37;;;20.60;57.80;;;;;;4994710;28;20842;-69
2022/07/18 05:51:10;;;;;;;14.83;3.50;;;20.70;57.60;;;;;;4994827;28;20444;-69
2022/07/18 05:53:36;;;;;;;5.13;3.03;;;20.80;57.70;;;;;;4994764;28;20452;-69
2022/07/18 05:56:06;;;;;;;4.93;2.80;;;20.90;57.50;;;;;;4994694;28;20440;-69
2022/07/18 05:58:32;;;;;;;6.80;3.50;;;21.00;57.30;;;;;;4994490;28;20479;-69
2022/07/18 06:00:59;;;;;;;4.50;3.20;;;21.10;56.80;;;;;;4993787;28;20456;-69
2022/07/18 06:03:26;;;;;;;5.60;3.27;;;21.20;56.90;;;;;;4994237;28;20968;-69
2022/07/18 06:05:53;;;;;;;10.73;4.17;;;21.30;56.60;;;;;;4994145;28;20488;-69
2022/07/18 06:08:19;;;;;;;8.80;3.00;;;21.40;56.60;;;;;;4994393;28;20464;-69
2022/07/18 06:10:46;;;;;;;13.13;3.60;;;21.60;56.50;;;;;;4994817;28;20460;-69
2022/07/18 06:13:14;;;;;;;6.13;2.77;;;21.60;55.80;;;;;;4994060;28;20946;-69
2022/07/18 06:15:41;;;;;;;7.80;2.90;;;21.70;55.00;;;;;;4994370;28;20449;-69
2022/07/18 06:18:08;;;;;;;3.53;2.30;;;21.90;54.80;;;;;;4994140;28;20982;-69
2022/07/18 06:20:35;;;;;;;7.00;3.20;;;22.00;54.30;;;;;;4993852;28;20480;-69
2022/07/18 06:23:01;;;;;;;6.67;3.20;;;22.10;53.50;;;;;;4994226;28;20463;-69
2022/07/18 06:25:28;;;;;;;5.50;2.80;;;22.20;53.00;;;;;;4994090;28;20480;-69
2022/07/18 06:27:55;;;;;;;5.83;2.83;;;22.30;52.80;;;;;;4994033;28;20472;-69
2022/07/18 06:30:24;;;;;;;4.20;2.97;;;22.40;52.60;;;;;;4994263;28;20449;-69
2022/07/18 06:32:50;;;;;;;9.60;2.87;;;22.50;52.40;;;;;;4993919;28;20464;-69
2022/07/18 06:35:17;;;;;;;5.77;3.17;;;22.70;51.80;;;;;;4994329;28;20452;-69
2022/07/18 06:37:45;;;;;;;7.20;3.43;;;22.80;51.50;;;;;;4994544;28;20483;-69
2022/07/18 06:40:12;;;;;;;5.67;2.70;;;22.90;51.00;;;;;;4994203;28;20451;-69
2022/07/18 06:42:39;;;;;;;5.00;2.80;;;23.10;50.60;;;;;;4993773;28;20817;-69
2022/07/18 06:45:07;;;;;;;6.23;3.07;;;23.30;50.40;;;;;;4993976;28;20462;-69
2022/07/18 06:47:35;;;;;;;5.50;2.23;;;23.40;49.80;;;;;;4993952;28;20506;-69
2022/07/18 06:50:02;;;;;;;7.90;2.60;;;23.50;49.10;;;;;;4994084;28;20544;-69
2022/07/18 06:52:29;;;;;;;6.57;2.80;;;23.60;48.50;;;;;;4994178;28;20459;-69
2022/07/18 06:54:55;;;;;;;10.03;3.40;;;23.80;48.10;;;;;;4994191;28;20495;-69
2022/07/18 06:57:22;;;;;;;2.93;2.20;;;23.90;47.40;;;;;;4994014;28;20470;-70
2022/07/18 06:59:49;;;;;;;4.30;2.20;;;24.10;47.40;;;;;;4994139;28;20546;-69
2022/07/18 07:02:16;;;;;;;4.53;2.70;;;24.30;47.20;;;;;;4994249;28;20491;-69
2022/07/18 07:04:44;;;;;;;4.10;2.63;;;24.50;47.10;;;;;;4994050;28;20459;-69
2022/07/18 07:07:11;;;;;;;6.00;2.30;;;24.70;47.10;;;;;;4994006;28;20543;-69
2022/07/18 07:09:37;;;;;;;3.33;1.80;;;24.80;47.00;;;;;;4993853;28;20448;-69
2022/07/18 07:12:04;;;;;;;3.90;2.23;;;25.00;47.10;;;;;;4994300;28;20450;-69
2022/07/18 07:14:31;;;;;;;5.57;2.87;;;25.10;46.50;;;;;;4997713;28;20448;-69
2022/07/18 07:16:58;;;;;;;5.53;2.57;;;25.20;46.20;;;;;;4997607;28;20452;-69
2022/07/18 07:19:25;;;;;;;4.77;2.63;;;25.40;46.10;;;;;;4997507;28;20452;-69
2022/07/18 07:21:53;;;;;;;5.43;2.10;;;25.50;46.00;;;;;;4997687;28;20448;-69
2022/07/18 07:24:20;;;;;;;5.20;2.73;;;25.70;45.20;;;;;;4997506;28;20459;-69
2022/07/18 07:26:47;;;;;;;4.13;2.43;;;25.90;44.00;;;;;;4997232;28;20480;-69
2022/07/18 07:29:14;;;;;;;4.33;2.27;;;26.10;43.60;;;;;;4997461;28;20459;-69
2022/07/18 07:31:42;;;;;;;7.40;3.00;;;26.30;43.80;;;;;;4997137;28;20888;-69
2022/07/18 07:34:09;;;;;;;3.97;2.50;;;26.50;42.80;;;;;;4997100;28;20910;-69
2022/07/18 07:36:36;;;;;;;4.20;2.03;;;26.80;42.60;;;;;;4997372;28;20455;-70
2022/07/18 07:39:04;;;;;;;3.23;2.30;;;27.00;41.50;;;;;;4997336;28;20472;-70
2022/07/18 07:41:31;;;;;;;4.93;2.30;;;27.20;40.30;;;;;;4997133;28;20450;-70
2022/07/18 07:43:58;;;;;;;7.50;2.50;;;27.50;40.10;;;;;;4997385;28;20463;-70
2022/07/18 07:46:25;;;;;;;4.43;2.20;;;27.70;38.90;;;;;;4997224;28;20495;-70
2022/07/18 07:48:51;;;;;;;4.53;2.03;;;27.90;38.80;;;;;;4997145;28;20824;-70
2022/07/18 07:51:19;;;;;;;2.33;1.57;;;28.10;37.90;;;;;;4996709;28;20850;-70
2022/07/18 07:53:46;;;;;;;3.80;1.80;;;28.40;37.50;;;;;;4996991;28;20455;-70
2022/07/18 07:56:18;;;;;;;3.17;1.73;;;28.60;36.80;;;;;;4996887;28;20452;-70
2022/07/18 07:58:45;;;;;;;5.03;1.63;;;28.70;34.20;;;;;;4996655;28;20476;-70
2022/07/18 08:01:12;;;;;;;4.03;1.60;;;28.80;33.40;;;;;;4996770;28;20452;-70
2022/07/18 08:03:39;;;;;;;8.63;1.80;;;28.90;33.30;;;;;;4996597;28;21012;-70
2022/07/18 08:06:06;;;;;;;2.70;1.40;;;28.90;33.40;;;;;;4996367;28;21012;-70
2022/07/18 08:08:33;;;;;;;3.97;1.87;;;28.90;33.60;;;;;;4996353;28;20464;-70
2022/07/18 08:10:59;;;;;;;5.07;2.20;;;29.00;33.20;;;;;;4996747;28;20455;-70
2022/07/18 08:13:27;;;;;;;2.53;1.73;;;29.10;33.30;;;;;;4996841;28;20440;-70
2022/07/18 08:15:54;;;;;;;3.70;1.70;;;29.30;32.90;;;;;;4996728;28;20444;-70
2022/07/18 08:18:21;;;;;;;4.70;2.23;;;29.50;32.90;;;;;;4996403;28;20468;-70
2022/07/18 08:20:48;;;;;;;6.93;2.57;;;29.60;32.10;;;;;;4996276;28;20443;-70
2022/07/18 08:23:16;;;;;;;6.30;1.87;;;29.90;32.10;;;;;;4996092;28;20534;-70
2022/07/18 08:25:45;;;;;;;4.70;1.73;;;30.10;31.00;;;;;;4995773;28;20452;-70
2022/07/18 08:28:12;;;;;;;8.83;2.07;;;30.30;31.20;;;;;;4996238;28;20472;-70
2022/07/18 08:30:40;;;;;;;5.20;2.40;;;30.50;31.50;;;;;;4996394;28;20447;-69
2022/07/18 08:33:08;;;;;;;2.93;1.70;;;30.70;31.20;;;;;;4996074;28;20456;-68
2022/07/18 08:35:35;;;;;;;3.17;1.70;;;30.90;31.10;;;;;;4996382;28;20455;-69
2022/07/18 08:38:03;;;;;;;3.67;1.80;;;31.10;30.40;;;;;;4995721;28;20982;-69
2022/07/18 08:40:30;;;;;;;7.03;1.80;;;31.30;30.00;;;;;;4996081;28;20818;-69
2022/07/18 08:42:58;;;;;;;3.00;1.67;;;31.50;30.20;;;;;;4995961;28;20452;-69
2022/07/18 08:45:26;;;;;;;3.07;1.90;;;31.70;31.10;;;;;;4995666;28;20492;-69
2022/07/18 08:47:54;;;;;;;3.93;2.13;;;32.00;31.30;;;;;;4995801;28;20497;-69
2022/07/18 08:50:22;;;;;;;8.47;2.50;;;32.30;31.70;;;;;;4996039;28;20454;-69
2022/07/18 08:52:50;;;;;;;3.33;2.43;;;32.50;31.10;;;;;;4995847;28;20463;-69
2022/07/18 08:55:17;;;;;;;5.23;1.80;;;32.70;29.20;;;;;;4995728;28;20455;-69
2022/07/18 08:57:44;;;;;;;4.07;2.20;;;32.80;28.20;;;;;;4995729;28;20464;-69
2022/07/18 09:00:12;;;;;;;5.07;2.07;;;33.00;28.60;;;;;;4995826;28;20486;-69
2022/07/18 09:02:39;;;;;;;4.33;2.00;;;33.30;28.20;;;;;;4995894;28;20447;-69
2022/07/18 09:05:18;;;;;;;3.03;1.80;;;33.60;28.30;;;;;;4995787;28;20443;-69
2022/07/18 09:07:45;;;;;;;4.73;2.03;;;33.80;27.50;;;;;;4995430;28;20510;-69
2022/07/18 09:10:12;;;;;;;3.60;1.90;;;34.10;27.40;;;;;;4995524;28;20440;-69
2022/07/18 09:12:39;;;;;;;3.77;2.00;;;34.30;25.90;;;;;;4995578;28;20440;-69
2022/07/18 09:15:08;;;;;;;4.50;1.97;;;34.50;25.70;;;;;;4995477;28;20447;-69
2022/07/18 09:17:36;;;;;;;6.00;2.17;;;34.70;26.20;;;;;;4995531;28;20506;-69
2022/07/18 09:20:07;;;;;;;3.07;2.00;;;34.90;26.20;;;;;;4995314;28;20470;-69
2022/07/18 09:22:36;;;;;;;3.00;1.90;;;35.10;25.40;;;;;;4995250;28;20432;-69
2022/07/18 09:25:07;;;;;;;6.87;2.20;;;35.30;25.60;;;;;;4995662;28;20945;-69
2022/07/18 09:27:37;;;;;;;6.00;1.93;;;35.40;24.90;;;;;;4994829;28;21055;-69
2022/07/18 09:30:30;;;;;;;3.70;2.00;;;35.50;24.30;;;;;;4995504;28;20443;-69
2022/07/18 09:33:07;;;;;;;2.40;1.47;;;35.70;24.70;;;;;;4994933;28;20490;-69
2022/07/18 09:35:36;;;;;;;3.20;1.60;;;35.70;24.60;;;;;;4995654;28;20442;-69
2022/07/18 09:38:07;;;;;;;4.23;2.03;;;35.70;25.10;;;;;;4995105;28;20474;-69
2022/07/18 09:40:36;;;;;;;6.23;2.13;;;35.70;25.50;;;;;;4995288;28;20448;-69
2022/07/18 09:43:05;;;;;;;3.23;1.80;;;35.90;25.70;;;;;;4995216;28;20499;-69
2022/07/18 09:45:33;;;;;;;6.67;2.20;;;36.10;24.50;;;;;;4994964;28;20448;-69
2022/07/18 09:48:02;;;;;;;3.27;1.77;;;36.30;23.50;;;;;;4995012;28;20487;-69
2022/07/18 09:50:31;;;;;;;9.20;2.07;;;36.40;23.00;;;;;;4995215;28;20452;-69
2022/07/18 09:53:01;;;;;;;7.57;1.80;;;36.40;21.20;;;;;;4995239;28;20208;-69
2022/07/18 09:55:29;;;;;;;5.60;1.70;;;36.50;22.70;;;;;;4994710;28;20948;-69
2022/07/18 09:58:01;;;;;;;2.97;1.70;;;36.50;22.00;;;;;;4994822;28;20469;-69
2022/07/18 10:00:29;;;;;;;7.77;1.60;;;36.60;20.80;;;;;;4994983;28;20456;-69
2022/07/18 10:02:58;;;;;;;6.13;1.70;;;36.60;20.20;;;;;;4994895;28;20502;-69
2022/07/18 10:05:27;;;;;;;3.00;2.00;;;36.80;20.80;;;;;;4995147;28;20240;-70
2022/07/18 10:07:54;;;;;;;5.83;2.13;;;37.20;20.40;;;;;;4994727;28;20264;-70
2022/07/18 10:10:24;;;;;;;5.55;1.90;;;37.60;19.90;;;;;;4995095;28;20288;-70
2022/07/18 10:12:54;;;;;;;3.50;1.80;;;37.90;19.80;;;;;;4994907;28;20553;-70
2022/07/18 10:15:23;;;;;;;5.50;1.80;;;38.10;19.90;;;;;;4994944;28;20215;-70
2022/07/18 10:17:50;;;;;;;4.45;2.00;;;38.60;19.70;;;;;;4994571;28;20220;-70
2022/07/18 10:20:18;;;;;;;4.10;2.03;;;39.00;19.00;;;;;;4995215;28;20279;-70
2022/07/18 10:22:46;;;;;;;8.43;1.80;;;39.40;18.20;;;;;;4997201;28;20211;-70
2022/07/18 10:25:14;;;;;;;6.38;2.05;;;39.80;18.70;;;;;;4995619;28;20586;-70
2022/07/18 10:27:54;;;;;;;4.47;1.75;;;40.00;18.80;;;;;;4994986;28;20238;-70
2022/07/18 10:30:35;;;;;;;7.78;2.10;;;40.10;17.60;;;;;;4995095;28;20208;-69
2022/07/18 10:33:03;;;;;;;4.38;2.15;;;40.30;17.10;;;;;;4993935;28;20713;-70
2022/07/18 10:36:03;;;;;;;4.65;1.50;;;40.20;18.60;;;;;;4994051;28;20205;-70
2022/07/18 10:38:29;;;;;;;6.57;1.90;;;40.30;17.80;;;;;;4994123;28;20697;-70
2022/07/18 10:41:12;;;;;;;9.57;2.80;;;40.50;17.60;;;;;;4994162;28;20684;-70
2022/07/18 10:43:43;;;;;;;5.88;1.77;;;40.70;16.70;;;;;;4994400;28;20200;-70
2022/07/18 10:46:10;;;;;;;4.78;1.55;;;41.00;17.30;;;;;;4994380;28;20192;-70
2022/07/18 10:48:57;;;;;;;3.70;2.05;;;41.30;16.70;;;;;;4997158;28;20601;-70
2022/07/18 10:51:34;;;;;;;4.15;2.00;;;41.80;17.90;;;;;;4998523;28;20204;-70
2022/07/18 10:54:19;;;;;;;8.15;2.05;;;42.30;18.10;;;;;;4998127;28;20188;-70
2022/07/18 10:57:07;;;;;;;4.30;1.90;;;42.80;16.00;;;;;;4998186;28;20189;-70
2022/07/18 10:59:36;;;;;;;7.63;1.48;;;43.00;14.80;;;;;;4998509;28;20189;-70
2022/07/18 11:02:06;;;;;;;3.28;1.48;;;43.00;16.10;;;;;;4998490;28;20204;-70
2022/07/18 11:04:39;;;;;;;9.40;1.70;;;43.30;16.40;;;;;;4997909;28;20598;-70
2022/07/18 11:07:10;;;;;;;3.85;1.50;;;43.70;16.20;;;;;;4997879;28;20609;-70
2022/07/18 11:09:39;;;;;;;8.02;1.60;;;43.90;15.70;;;;;;4998205;28;20303;-70
2022/07/18 11:12:32;;;;;;;5.10;1.40;;;44.00;15.10;;;;;;5016443;23;20224;-69
2022/07/18 11:15:06;;;;;;;8.30;1.90;;;44.10;14.90;;;;;;4971301;28;20200;-70
2022/07/18 11:18:10;;;;;;;3.72;1.75;;;44.00;13.50;;;;;;5017708;28;20227;-70
2022/07/18 11:20:39;;;;;;;9.13;1.83;;;44.10;14.60;;;;;;5017515;28;20191;-70
2022/07/18 11:23:17;;;;;;;6.90;1.88;;;44.30;13.70;;;;;;5017480;28;20585;-71
2022/07/18 11:25:44;;;;;;;6.32;2.53;;;44.50;14.20;;;;;;5017453;28;20193;-72
2022/07/18 11:28:12;;;;;;;5.53;1.40;;;44.80;14.00;;;;;;5017434;28;20228;-71
2022/07/18 11:30:40;;;;;;;6.88;1.40;;;45.30;13.90;;;;;;5017762;28;20204;-70
2022/07/18 11:33:20;;;;;;;6.63;2.25;;;45.60;12.70;;;;;;5017751;28;20200;-70
2022/07/18 11:35:47;;;;;;;4.82;1.38;;;45.70;13.60;;;;;;5017474;28;20664;-70
2022/07/18 11:38:14;;;;;;;4.60;1.30;;;45.90;13.10;;;;;;5018040;28;20219;-69
2022/07/18 11:40:50;;;;;;;6.00;1.42;;;46.20;12.70;;;;;;5017655;28;20291;-71
2022/07/18 11:43:24;;;;;;;6.10;1.50;;;46.50;12.60;;;;;;5017237;28;20210;-69
2022/07/18 11:46:02;;;;;;;3.30;1.60;;;46.70;12.40;;;;;;5020253;28;20199;-72
2022/07/18 11:48:29;;;;;;;4.90;1.25;;;46.90;11.90;;;;;;5018344;28;20231;-71
2022/07/18 11:50:56;;;;;;;2.80;1.58;;;47.00;12.10;;;;;;5017486;28;20199;-70
2022/07/18 11:53:23;;;;;;;4.22;1.60;;;47.10;12.40;;;;;;5017286;28;20199;-70
2022/07/18 11:55:50;;;;;;;3.00;1.30;;;47.50;11.30;;;;;;5018642;28;20230;-69
2022/07/18 11:58:18;;;;;;;2.70;1.50;;;47.70;12.50;;;;;;5017283;28;20606;-70
2022/07/18 12:00:47;;;;;;;4.93;2.05;;;48.10;12.30;;;;;;5018367;28;20211;-69
2022/07/18 12:03:16;;;;;;;5.57;1.70;;;48.50;12.20;;;;;;5017401;28;20199;-69
2022/07/18 12:05:45;;;;;;;2.85;1.48;;;49.00;12.20;;;;;;5017532;28;20576;-69
2022/07/18 12:08:36;;;;;;;4.47;1.42;;;49.50;10.90;;;;;;5017146;28;20592;-69
2022/07/18 12:11:07;;;;;;;6.43;1.98;;;49.50;10.10;;;;;;5017056;28;20188;-71
2022/07/18 12:13:48;;;;;;;6.65;1.67;;;49.60;11.50;;;;;;5016769;28;20192;-71
2022/07/18 12:16:36;;;;;;;5.25;1.58;;;49.90;11.10;;;;;;5016905;28;20566;-71
2022/07/18 12:19:10;;;;;;;6.90;1.63;;;49.80;10.80;;;;;;5017284;28;20231;-70
2022/07/18 12:21:47;;;;;;;4.85;1.70;;;49.50;10.50;;;;;;4997458;28;20192;-69
2022/07/18 12:24:28;;;;;;;4.63;1.67;;;49.50;10.90;;;;;;4997386;28;20228;-69
2022/07/18 12:27:18;;;;;;;4.57;1.58;;;49.70;10.30;;;;;;4997299;28;20215;-69
2022/07/18 12:30:04;;;;;;;7.60;1.80;;;50.00;10.80;;;;;;4997541;28;20239;-69
2022/07/18 12:32:38;;;;;;;5.95;1.58;;;50.20;10.50;;;;;;4998703;28;20193;-69
2022/07/18 12:35:10;;;;;;;3.92;1.40;;;50.50;9.40;;;;;;4996741;28;20223;-70
2022/07/18 12:37:37;;;;;;;5.18;1.45;;;50.90;9.80;;;;;;4996112;28;20697;-71
2022/07/18 12:40:06;;;;;;;5.78;1.80;;;51.20;9.10;;;;;;4997013;28;20219;-71
2022/07/18 12:42:35;;;;;;;6.10;1.48;;;51.60;10.20;;;;;;4997638;28;20188;-70
2022/07/18 12:45:03;;;;;;;8.83;1.63;;;52.00;11.10;;;;;;4996606;28;20437;-69
2022/07/18 12:47:29;;;;;;;5.90;1.88;;;52.50;10.60;;;;;;4996471;28;20471;-69
2022/07/18 12:49:57;;;;;;;5.97;1.55;;;52.70;9.40;;;;;;4996137;28;20205;-69
2022/07/18 12:52:25;;;;;;;8.77;2.10;;;52.70;9.60;;;;;;4996435;28;20208;-70
2022/07/18 12:54:52;;;;;;;4.25;1.63;;;52.70;9.80;;;;;;4995733;28;20212;-70
2022/07/18 12:57:20;;;;;;;3.15;1.52;;;52.60;9.40;;;;;;4995809;28;20231;-70